Weather at Rakovnik Airfield

Public forecast

Using degrees Celsius for public forecast. Weather courtesy of forecast.io.

Closest aviation weather report (METAR) to Rakovnik Airfield

Closest report is Václav Havel Airport Prague, 22.0 nm (40.7 km) E. Retrieved 2021/08/01 01:30 UTC (13 minutes ago):

LKPR 010130Z VRB02KT CAVOK 15/09 Q1010 NOSIG

Closest aviation forecast (TAF) to Rakovnik Airfield

Closest forecast is Václav Havel Airport Prague, 22.0 nm (40.7 km) E. Retrieved 2021-08-01 00:06 UTC (2 hours ago):

TAF LKPR 312300Z 0100/0206 26008KT CAVOK BECMG 0102/0104 9999 SCT030 TEMPO 0104/0115 8000 SHRA BKN020 SCT035TCU PROB30 TEMPO 0105/0109 5000 RA BKN010 TEMPO 0107/0116 34004KT